Time;durP1;ratioP1;P1;durP2;ratioP2;P2;SDS_P1;SDS_P2;PMS_P1;PMS_P2;Temp;Humidity;BMP_temperature;BMP_pressure;BME280_temperature;BME280_humidity;BME280_pressure;Samples;Min_cycle;Max_cycle;Signal;HPM_P1;HPM_P2
2023/06/16 00:01:53;;;;;;;12.98;10.23;;;;;;;;;;6150223;23;20030;-78
2023/06/16 00:04:21;;;;;;;13.93;9.88;;;;;;;;;;6148909;23;20332;-78
2023/06/16 00:06:56;;;;;;;16.80;10.18;;;;;;;;;;6148840;23;20025;-78
2023/06/16 00:09:25;;;;;;;10.98;9.82;;;;;;;;;;6120835;23;20462;-78
2023/06/16 00:11:53;;;;;;;13.18;10.18;;;;;;;;;;6148951;23;20051;-78
2023/06/16 00:14:27;;;;;;;13.43;9.93;;;;;;;;;;6143882;23;20025;-78
2023/06/16 00:16:57;;;;;;;12.95;9.98;;;;;;;;;;6148253;23;20033;-78
2023/06/16 00:19:31;;;;;;;13.20;10.63;;;;;;;;;;6149116;23;20018;-78
2023/06/16 00:22:03;;;;;;;13.13;9.90;;;;;;;;;;6149446;23;20022;-78
2023/06/16 00:24:32;;;;;;;16.45;10.25;;;;;;;;;;6124185;23;20479;-78
2023/06/16 00:27:06;;;;;;;12.35;9.90;;;;;;;;;;6148669;23;20025;-77
2023/06/16 00:29:34;;;;;;;13.18;10.02;;;;;;;;;;6149849;23;20108;-78
2023/06/16 00:32:01;;;;;;;14.10;9.90;;;;;;;;;;6147507;23;20030;-78
2023/06/16 00:34:35;;;;;;;15.05;10.40;;;;;;;;;;6148749;23;20029;-78
2023/06/16 00:37:02;;;;;;;13.05;10.25;;;;;;;;;;6149099;23;20506;-77
2023/06/16 00:39:36;;;;;;;13.05;10.20;;;;;;;;;;6147041;23;20028;-78
2023/06/16 00:42:03;;;;;;;15.82;10.93;;;;;;;;;;6145834;23;20076;-77
2023/06/16 00:44:30;;;;;;;14.50;10.38;;;;;;;;;;6147995;23;20029;-78
2023/06/16 00:47:04;;;;;;;16.88;11.57;;;;;;;;;;6148344;23;20026;-78
2023/06/16 00:49:38;;;;;;;18.38;11.30;;;;;;;;;;6147489;23;20026;-77
2023/06/16 00:52:20;;;;;;;14.18;11.73;;;;;;;;;;6148855;23;20026;-78
2023/06/16 00:54:47;;;;;;;15.85;11.55;;;;;;;;;;6147579;23;20037;-78
2023/06/16 00:57:21;;;;;;;20.55;11.70;;;;;;;;;;6149166;23;20044;-78
2023/06/16 00:59:55;;;;;;;17.73;12.10;;;;;;;;;;6150548;23;20022;-78
2023/06/16 01:02:22;;;;;;;18.63;11.60;;;;;;;;;;6148075;23;20025;-78
2023/06/16 01:04:51;;;;;;;20.38;11.95;;;;;;;;;;6146573;23;20025;-78
2023/06/16 01:07:45;;;;;;;19.10;12.07;;;;;;;;;;6148098;23;20033;-78
2023/06/16 01:10:25;;;;;;;19.17;12.32;;;;;;;;;;6117707;23;20025;-78
2023/06/16 01:13:07;;;;;;;19.23;12.27;;;;;;;;;;6148443;23;20025;-78
2023/06/16 01:15:42;;;;;;;17.25;11.27;;;;;;;;;;6149821;23;20021;-78
2023/06/16 01:18:22;;;;;;;15.63;11.70;;;;;;;;;;6149747;23;20032;-78
2023/06/16 01:20:53;;;;;;;15.50;11.93;;;;;;;;;;6146837;23;20036;-78
2023/06/16 01:23:33;;;;;;;15.43;12.03;;;;;;;;;;6148111;23;20025;-77
2023/06/16 01:26:01;;;;;;;15.48;12.15;;;;;;;;;;6148793;23;20031;-77
2023/06/16 01:28:36;;;;;;;15.65;11.95;;;;;;;;;;6149855;23;20021;-77
2023/06/16 01:31:03;;;;;;;15.07;11.88;;;;;;;;;;6144729;23;20030;-77
2023/06/16 01:33:51;;;;;;;17.63;11.27;;;;;;;;;;6172773;23;20477;-46
2023/06/16 01:36:25;;;;;;;15.48;11.48;;;;;;;;;;6207440;23;20036;-48
2023/06/16 01:39:00;;;;;;;17.90;12.27;;;;;;;;;;6207096;23;20421;-46
2023/06/16 01:41:28;;;;;;;16.58;13.10;;;;;;;;;;6206714;23;20025;-47
2023/06/16 01:43:56;;;;;;;14.95;12.00;;;;;;;;;;6207784;23;20029;-47
2023/06/16 01:46:31;;;;;;;20.10;12.20;;;;;;;;;;6206436;23;20540;-51
2023/06/16 01:49:05;;;;;;;15.15;11.18;;;;;;;;;;6207060;23;20030;-48
2023/06/16 01:51:39;;;;;;;14.35;11.15;;;;;;;;;;6207836;23;20485;-61
2023/06/16 01:54:06;;;;;;;13.98;10.70;;;;;;;;;;6206590;23;20037;-60
2023/06/16 01:56:33;;;;;;;16.65;11.05;;;;;;;;;;6207326;23;20024;-59
2023/06/16 01:59:07;;;;;;;14.82;10.63;;;;;;;;;;6209818;23;20098;-59
2023/06/16 02:01:37;;;;;;;18.13;12.50;;;;;;;;;;6207756;23;20071;-59
2023/06/16 02:04:27;;;;;;;16.67;10.75;;;;;;;;;;6210563;22;20078;-46
2023/06/16 02:07:10;;;;;;;16.55;11.60;;;;;;;;;;6237836;23;20024;-44
2023/06/16 02:09:45;;;;;;;20.27;12.10;;;;;;;;;;6239156;23;20027;-42
2023/06/16 02:12:13;;;;;;;18.52;11.25;;;;;;;;;;6237611;23;20074;-42
2023/06/16 02:14:48;;;;;;;15.90;11.40;;;;;;;;;;6238646;23;20020;-43
2023/06/16 02:17:15;;;;;;;19.70;12.27;;;;;;;;;;6238383;23;20353;-44
2023/06/16 02:19:43;;;;;;;20.30;11.68;;;;;;;;;;6238682;23;20021;-43
2023/06/16 02:22:17;;;;;;;17.10;12.00;;;;;;;;;;6238711;23;20024;-46
2023/06/16 02:24:44;;;;;;;16.50;11.82;;;;;;;;;;6238749;23;20074;-46
2023/06/16 02:27:13;;;;;;;14.35;11.68;;;;;;;;;;6239224;23;20020;-44
2023/06/16 02:29:47;;;;;;;16.88;11.30;;;;;;;;;;6235006;23;20051;-46
2023/06/16 02:32:14;;;;;;;18.60;12.43;;;;;;;;;;6238671;23;20024;-45
2023/06/16 02:34:48;;;;;;;14.85;12.57;;;;;;;;;;6239074;23;20016;-44
2023/06/16 02:37:16;;;;;;;19.33;12.27;;;;;;;;;;6212579;23;20089;-43
2023/06/16 02:39:43;;;;;;;15.75;13.10;;;;;;;;;;6234789;23;20032;-59
2023/06/16 02:42:17;;;;;;;16.80;12.73;;;;;;;;;;6238853;23;20066;-39
2023/06/16 02:44:45;;;;;;;17.40;12.75;;;;;;;;;;6239257;23;20020;-39
2023/06/16 02:47:19;;;;;;;13.50;11.48;;;;;;;;;;6237768;23;20032;-41
2023/06/16 02:49:46;;;;;;;18.10;12.25;;;;;;;;;;6239878;23;20020;-39
2023/06/16 02:52:13;;;;;;;18.42;13.35;;;;;;;;;;6239725;23;20024;-41
2023/06/16 02:54:47;;;;;;;17.73;13.15;;;;;;;;;;6239458;23;20464;-40
2023/06/16 02:57:14;;;;;;;18.95;12.93;;;;;;;;;;6239008;23;20027;-46
2023/06/16 02:59:48;;;;;;;13.30;10.88;;;;;;;;;;6238712;23;20024;-59
2023/06/16 03:02:15;;;;;;;16.10;10.57;;;;;;;;;;6235277;23;20028;-59
2023/06/16 03:04:43;;;;;;;13.52;11.05;;;;;;;;;;6238169;22;20024;-60
2023/06/16 03:07:23;;;;;;;13.20;10.90;;;;;;;;;;6234001;23;20074;-59
2023/06/16 03:09:50;;;;;;;13.35;11.13;;;;;;;;;;6234993;23;20028;-59
2023/06/16 03:12:24;;;;;;;13.55;10.73;;;;;;;;;;6237792;23;20028;-60
2023/06/16 03:14:51;;;;;;;20.42;10.90;;;;;;;;;;6213551;23;20074;-59
2023/06/16 03:17:22;;;;;;;17.17;10.95;;;;;;;;;;6237170;23;20024;-59
2023/06/16 03:19:56;;;;;;;14.90;9.13;;;;;;;;;;6238369;23;20052;-60
2023/06/16 03:22:23;;;;;;;14.10;10.63;;;;;;;;;;6238492;23;20078;-60
2023/06/16 03:25:02;;;;;;;18.45;10.88;;;;;;;;;;6239251;23;20477;-59
2023/06/16 03:27:30;;;;;;;15.70;10.98;;;;;;;;;;6237621;23;20020;-59
2023/06/16 03:30:04;;;;;;;13.95;10.10;;;;;;;;;;6240101;23;20024;-59
2023/06/16 03:32:33;;;;;;;14.70;11.98;;;;;;;;;;6237650;23;20016;-46
2023/06/16 03:35:02;;;;;;;14.98;12.10;;;;;;;;;;6233165;23;20024;-59
2023/06/16 03:37:36;;;;;;;15.63;11.73;;;;;;;;;;6238347;23;20090;-48
2023/06/16 03:40:05;;;;;;;17.20;11.43;;;;;;;;;;6229667;23;20436;-50
2023/06/16 03:42:39;;;;;;;17.80;12.55;;;;;;;;;;6233009;23;20090;-48
2023/06/16 03:45:07;;;;;;;14.75;11.63;;;;;;;;;;6239653;23;20032;-49
2023/06/16 03:47:34;;;;;;;18.05;12.07;;;;;;;;;;6233978;23;20020;-49
2023/06/16 03:50:08;;;;;;;16.00;11.80;;;;;;;;;;6237906;23;20024;-50
2023/06/16 03:52:35;;;;;;;15.70;12.45;;;;;;;;;;6237746;23;20027;-59
2023/06/16 03:55:03;;;;;;;17.17;11.45;;;;;;;;;;6233919;23;20078;-59
2023/06/16 03:57:37;;;;;;;17.50;12.43;;;;;;;;;;6235985;23;20024;-59
2023/06/16 04:00:08;;;;;;;18.83;12.10;;;;;;;;;;6235731;23;20020;-60
2023/06/16 04:02:42;;;;;;;15.63;11.73;;;;;;;;;;6236689;23;20078;-59
2023/06/16 04:05:16;;;;;;;15.23;10.85;;;;;;;;;;6234544;23;20103;-59
2023/06/16 04:07:57;;;;;;;17.25;11.10;;;;;;;;;;6236795;23;20024;-58
2023/06/16 04:10:31;;;;;;;15.23;10.32;;;;;;;;;;6239362;23;20070;-44
2023/06/16 04:12:58;;;;;;;17.60;10.93;;;;;;;;;;6237877;23;20077;-50
2023/06/16 04:15:25;;;;;;;13.10;9.63;;;;;;;;;;6238638;23;20506;-48
2023/06/16 04:17:59;;;;;;;14.85;11.13;;;;;;;;;;6236945;23;20066;-51
2023/06/16 04:20:26;;;;;;;;;;;;;;;;;;6238022;23;20421;-59
2023/06/16 04:22:54;;;;;;;14.75;11.10;;;;;;;;;;6235414;23;20420;-43
2023/06/16 04:25:28;;;;;;;15.00;10.75;;;;;;;;;;6239387;23;20405;-43
2023/06/16 04:27:57;;;;;;;16.35;10.73;;;;;;;;;;6237177;23;20024;-46
2023/06/16 04:30:33;;;;;;;14.02;10.55;;;;;;;;;;6211575;23;20024;-43
2023/06/16 04:33:01;;;;;;;15.93;10.68;;;;;;;;;;6236263;23;20494;-45
2023/06/16 04:35:33;;;;;;;14.65;10.48;;;;;;;;;;6236511;23;20454;-46
2023/06/16 04:38:08;;;;;;;14.13;10.70;;;;;;;;;;6235770;23;20020;-45
2023/06/16 04:40:36;;;;;;;17.08;11.10;;;;;;;;;;6234308;23;20123;-46
2023/06/16 04:43:10;;;;;;;14.80;9.93;;;;;;;;;;6234702;23;20028;-46
2023/06/16 04:45:37;;;;;;;19.67;10.88;;;;;;;;;;6235997;23;20028;-44
2023/06/16 04:48:04;;;;;;;13.27;10.18;;;;;;;;;;6235006;23;20470;-46
2023/06/16 04:50:38;;;;;;;13.82;10.30;;;;;;;;;;6237025;23;20485;-42
2023/06/16 04:53:05;;;;;;;13.82;9.75;;;;;;;;;;6237519;23;20074;-46
2023/06/16 04:55:39;;;;;;;12.55;10.13;;;;;;;;;;6236336;23;20027;-44
2023/06/16 04:58:06;;;;;;;14.13;10.18;;;;;;;;;;6236277;23;20039;-49
2023/06/16 05:00:33;;;;;;;12.57;10.05;;;;;;;;;;6235954;23;20343;-44
2023/06/16 05:03:07;;;;;;;15.00;9.75;;;;;;;;;;6234611;23;20070;-43
2023/06/16 05:05:35;;;;;;;15.82;10.32;;;;;;;;;;6236222;23;20035;-51
2023/06/16 05:08:16;;;;;;;15.30;9.35;;;;;;;;;;6238522;23;20024;-47
2023/06/16 05:10:43;;;;;;;10.95;9.02;;;;;;;;;;6212444;23;20406;-46
2023/06/16 05:13:17;;;;;;;11.88;9.07;;;;;;;;;;6236642;23;20458;-44
2023/06/16 05:15:51;;;;;;;12.63;10.13;;;;;;;;;;6237296;23;20090;-59
2023/06/16 05:18:18;;;;;;;11.07;9.65;;;;;;;;;;6238262;23;20524;-44
2023/06/16 05:20:52;;;;;;;16.50;9.10;;;;;;;;;;6237346;23;20059;-44
2023/06/16 05:23:19;;;;;;;11.15;9.07;;;;;;;;;;6237571;23;20074;-42
2023/06/16 05:25:47;;;;;;;12.90;8.73;;;;;;;;;;6239037;23;20035;-42
2023/06/16 05:28:20;;;;;;;11.52;8.60;;;;;;;;;;6237027;23;20020;-40
2023/06/16 05:30:47;;;;;;;13.15;9.50;;;;;;;;;;6237390;23;20024;-43
2023/06/16 05:33:14;;;;;;;12.27;9.90;;;;;;;;;;6237705;23;20477;-42
2023/06/16 05:35:48;;;;;;;14.95;9.48;;;;;;;;;;6238499;23;20028;-48
2023/06/16 05:38:15;;;;;;;11.25;8.55;;;;;;;;;;6238239;23;20027;-48
2023/06/16 05:40:49;;;;;;;18.85;9.45;;;;;;;;;;6233992;23;20020;-52
2023/06/16 05:43:16;;;;;;;11.80;8.77;;;;;;;;;;6238005;23;20504;-50
2023/06/16 05:45:43;;;;;;;12.65;9.35;;;;;;;;;;6235144;23;20020;-43
2023/06/16 05:48:17;;;;;;;10.05;8.88;;;;;;;;;;6234500;23;20032;-42
2023/06/16 05:50:44;;;;;;;15.90;8.95;;;;;;;;;;6239116;23;20025;-44
2023/06/16 05:53:18;;;;;;;14.68;8.98;;;;;;;;;;6233629;23;20386;-44
2023/06/16 05:55:45;;;;;;;12.70;8.68;;;;;;;;;;6238115;23;20552;-46
2023/06/16 05:58:12;;;;;;;10.23;9.10;;;;;;;;;;6238664;23;20485;-40
2023/06/16 06:00:47;;;;;;;12.95;8.93;;;;;;;;;;6238013;23;20115;-45
2023/06/16 06:03:14;;;;;;;10.02;9.02;;;;;;;;;;6237594;23;20016;-44
2023/06/16 06:05:56;;;;;;;11.38;8.15;;;;;;;;;;6237431;23;20113;-48
2023/06/16 06:08:27;;;;;;;12.57;8.85;;;;;;;;;;6237251;23;20331;-44
2023/06/16 06:11:01;;;;;;;12.00;9.55;;;;;;;;;;6238477;23;20028;-44
2023/06/16 06:13:35;;;;;;;12.20;9.38;;;;;;;;;;6237356;23;20028;-61
2023/06/16 06:16:03;;;;;;;14.27;8.52;;;;;;;;;;6239268;23;20031;-46
2023/06/16 06:18:30;;;;;;;15.95;9.23;;;;;;;;;;6234173;23;20401;-46
2023/06/16 06:21:04;;;;;;;12.00;8.80;;;;;;;;;;6235818;23;20028;-49
2023/06/16 06:23:31;;;;;;;12.52;8.60;;;;;;;;;;6235227;23;20024;-44
2023/06/16 06:26:05;;;;;;;11.95;8.23;;;;;;;;;;6237755;23;20024;-52
2023/06/16 06:28:32;;;;;;;12.07;8.18;;;;;;;;;;6237984;23;20086;-47
2023/06/16 06:31:00;;;;;;;12.52;8.55;;;;;;;;;;6235737;23;20020;-47
2023/06/16 06:33:34;;;;;;;13.52;8.77;;;;;;;;;;6238203;23;20020;-44
2023/06/16 06:36:01;;;;;;;9.25;8.20;;;;;;;;;;6235016;23;20054;-46
2023/06/16 06:38:35;;;;;;;9.57;7.93;;;;;;;;;;6237179;23;20534;-45
2023/06/16 06:41:02;;;;;;;9.60;8.20;;;;;;;;;;6237750;23;20028;-50
2023/06/16 06:43:30;;;;;;;12.35;7.97;;;;;;;;;;6236848;23;20017;-46
2023/06/16 06:46:03;;;;;;;9.73;7.28;;;;;;;;;;6236394;23;20028;-50
2023/06/16 06:48:31;;;;;;;10.07;7.22;;;;;;;;;;6237191;23;20024;-48
2023/06/16 06:51:05;;;;;;;11.95;7.20;;;;;;;;;;6239364;23;20020;-47
2023/06/16 06:53:32;;;;;;;9.77;6.75;;;;;;;;;;6238702;23;20482;-50
2023/06/16 06:55:59;;;;;;;12.00;7.10;;;;;;;;;;6239391;23;20024;-47
2023/06/16 06:58:33;;;;;;;12.98;6.60;;;;;;;;;;6235195;23;20035;-49
2023/06/16 07:01:00;;;;;;;;;;;;;;;;;;6241353;23;20130;-44
2023/06/16 07:03:34;;;;;;;7.90;6.32;;;;;;;;;;6235880;23;19919;-45
2023/06/16 07:06:08;;;;;;;;;;;;;;;;;;6236441;23;20078;-46
2023/06/16 07:08:42;;;;;;;8.38;6.03;;;;;;;;;;6239541;23;19919;-45
2023/06/16 07:11:16;;;;;;;14.32;6.88;;;;;;;;;;6236274;23;20067;-48
2023/06/16 07:13:43;;;;;;;9.05;6.22;;;;;;;;;;6238620;23;20023;-46
2023/06/16 07:16:17;;;;;;;11.68;6.25;;;;;;;;;;6240029;23;20028;-43
2023/06/16 07:18:45;;;;;;;8.85;6.38;;;;;;;;;;6212415;23;20099;-44
2023/06/16 07:21:19;;;;;;;11.02;6.03;;;;;;;;;;6240174;23;20097;-43
2023/06/16 07:23:46;;;;;;;13.55;6.00;;;;;;;;;;6239444;23;20024;-42
2023/06/16 07:26:14;;;;;;;9.77;5.70;;;;;;;;;;6238802;23;20031;-43
2023/06/16 07:28:48;;;;;;;8.25;6.22;;;;;;;;;;6239047;23;20024;-58
2023/06/16 07:31:15;;;;;;;11.32;5.45;;;;;;;;;;6238082;23;20028;-59
2023/06/16 07:33:49;;;;;;;14.65;5.75;;;;;;;;;;6238074;23;20050;-59
2023/06/16 07:36:22;;;;;;;10.50;5.25;;;;;;;;;;6238569;23;20036;-59
2023/06/16 07:38:50;;;;;;;8.77;5.28;;;;;;;;;;6238346;23;20024;-43
2023/06/16 07:41:17;;;;;;;9.90;5.20;;;;;;;;;;6237124;23;20039;-44
2023/06/16 07:43:51;;;;;;;11.63;4.82;;;;;;;;;;6238978;23;20024;-46
2023/06/16 07:46:18;;;;;;;8.68;5.20;;;;;;;;;;6235800;23;20021;-45
2023/06/16 07:48:52;;;;;;;5.57;4.60;;;;;;;;;;6240510;23;20042;-44
2023/06/16 07:51:26;;;;;;;7.43;4.85;;;;;;;;;;6238547;23;20138;-45
2023/06/16 07:54:02;;;;;;;8.93;5.15;;;;;;;;;;6238571;23;20087;-46
2023/06/16 07:56:30;;;;;;;7.00;4.80;;;;;;;;;;6238697;23;20016;-42
2023/06/16 07:58:57;;;;;;;8.05;4.95;;;;;;;;;;6239346;23;20082;-41
2023/06/16 08:01:31;;;;;;;9.80;4.72;;;;;;;;;;6213333;23;20089;-45
2023/06/16 08:03:58;;;;;;;10.15;4.85;;;;;;;;;;6239531;23;20090;-42
2023/06/16 08:06:27;;;;;;;8.50;4.90;;;;;;;;;;6237530;22;20558;-46
2023/06/16 08:09:08;;;;;;;6.30;4.60;;;;;;;;;;6238089;23;20020;-47
2023/06/16 08:11:35;;;;;;;5.57;4.10;;;;;;;;;;6238290;23;20016;-46
2023/06/16 08:14:09;;;;;;;10.95;4.57;;;;;;;;;;6239256;23;20419;-48
2023/06/16 08:16:36;;;;;;;8.18;4.20;;;;;;;;;;6238154;23;20024;-49
2023/06/16 08:19:03;;;;;;;5.03;4.43;;;;;;;;;;6238411;23;20047;-48
2023/06/16 08:21:38;;;;;;;5.63;4.40;;;;;;;;;;6238393;23;20490;-44
2023/06/16 08:24:06;;;;;;;6.03;4.50;;;;;;;;;;6234482;23;20028;-47
2023/06/16 08:26:39;;;;;;;7.85;5.00;;;;;;;;;;6240582;23;20021;-41
2023/06/16 08:29:08;;;;;;;9.07;4.38;;;;;;;;;;6238983;23;20070;-42
2023/06/16 08:31:36;;;;;;;5.88;4.53;;;;;;;;;;6239812;23;20028;-45
2023/06/16 08:34:09;;;;;;;12.32;5.03;;;;;;;;;;6233720;23;20336;-44
2023/06/16 08:36:37;;;;;;;5.57;4.78;;;;;;;;;;6239558;23;20035;-50
2023/06/16 08:39:06;;;;;;;9.40;3.90;;;;;;;;;;6237831;23;20035;-51
2023/06/16 08:41:40;;;;;;;15.32;5.22;;;;;;;;;;6238565;23;20028;-49
2023/06/16 08:44:08;;;;;;;5.80;4.20;;;;;;;;;;6237833;23;20028;-49
2023/06/16 08:46:41;;;;;;;6.53;4.30;;;;;;;;;;6238366;23;20020;-49
2023/06/16 08:49:09;;;;;;;;;;;;;;;;;;6236786;23;20031;-50
2023/06/16 08:51:47;;;;;;;7.03;4.57;;;;;;;;;;6238716;23;20502;-49
2023/06/16 08:54:14;;;;;;;10.63;4.40;;;;;;;;;;6238992;23;20020;-50
2023/06/16 08:56:43;;;;;;;7.07;4.70;;;;;;;;;;6238990;23;20028;-49
2023/06/16 08:59:19;;;;;;;7.57;4.25;;;;;;;;;;6234668;23;20024;-49
2023/06/16 09:01:46;;;;;;;7.72;4.32;;;;;;;;;;6237728;23;20658;-52
2023/06/16 09:04:20;;;;;;;7.00;4.43;;;;;;;;;;6238175;23;20032;-48
2023/06/16 09:06:56;;;;;;;;;;;;;;;;;;6237497;23;20027;-44
2023/06/16 09:09:29;;;;;;;6.63;4.38;;;;;;;;;;6237901;23;19919;-45
2023/06/16 09:12:03;;;;;;;7.85;4.47;;;;;;;;;;6236682;23;20020;-45
2023/06/16 09:14:38;;;;;;;8.90;4.35;;;;;;;;;;6238796;23;20032;-41
2023/06/16 09:17:07;;;;;;;7.25;4.70;;;;;;;;;;6239015;23;20335;-47
2023/06/16 09:19:47;;;;;;;6.30;4.05;;;;;;;;;;6238538;23;20020;-43
2023/06/16 09:22:25;;;;;;;7.47;4.32;;;;;;;;;;6238348;23;20597;-59
2023/06/16 09:24:54;;;;;;;8.85;3.95;;;;;;;;;;6236860;23;20028;-59
2023/06/16 09:27:43;;;;;;;6.72;4.05;;;;;;;;;;6237493;23;20520;-59
2023/06/16 09:30:14;;;;;;;6.95;4.18;;;;;;;;;;6237201;23;20466;-59
2023/06/16 09:32:49;;;;;;;8.73;4.68;;;;;;;;;;6237000;23;20082;-52
2023/06/16 09:35:27;;;;;;;7.10;4.03;;;;;;;;;;6207726;23;20078;-48
2023/06/16 09:38:03;;;;;;;9.35;4.35;;;;;;;;;;6238063;23;20034;-48
2023/06/16 09:40:31;;;;;;;4.75;4.18;;;;;;;;;;6234164;23;20375;-48
2023/06/16 09:42:59;;;;;;;8.85;4.30;;;;;;;;;;6238848;23;20024;-47
2023/06/16 09:45:33;;;;;;;8.23;4.57;;;;;;;;;;6237664;23;20024;-49
2023/06/16 09:48:01;;;;;;;;;;;;;;;;;;6238774;23;20028;-49
2023/06/16 09:50:30;;;;;;;8.30;4.10;;;;;;;;;;6234504;23;19990;-50
2023/06/16 09:53:06;;;;;;;7.90;4.45;;;;;;;;;;6234991;23;20017;-49
2023/06/16 09:55:36;;;;;;;6.38;4.70;;;;;;;;;;6236910;23;20055;-45
2023/06/16 09:58:10;;;;;;;9.52;4.20;;;;;;;;;;6234949;23;20458;-47
2023/06/16 10:00:38;;;;;;;;;;;;;;;;;;6238564;23;20106;-55
2023/06/16 10:03:07;;;;;;;11.00;4.22;;;;;;;;;;6239312;23;19951;-54
2023/06/16 10:05:56;;;;;;;4.70;3.85;;;;;;;;;;6237389;23;20090;-53
2023/06/16 10:08:30;;;;;;;6.97;4.43;;;;;;;;;;6236999;23;20032;-53
2023/06/16 10:11:04;;;;;;;12.35;4.47;;;;;;;;;;6237731;23;20074;-54
2023/06/16 10:13:33;;;;;;;6.15;4.00;;;;;;;;;;6236611;23;20020;-53
2023/06/16 10:16:09;;;;;;;4.38;3.53;;;;;;;;;;6239410;23;20028;-52
2023/06/16 10:18:37;;;;;;;7.45;3.95;;;;;;;;;;6238608;23;20074;-54
2023/06/16 10:21:10;;;;;;;7.70;4.50;;;;;;;;;;6240541;23;20024;-56
2023/06/16 10:23:38;;;;;;;7.35;4.30;;;;;;;;;;6239973;23;20365;-57
2023/06/16 10:26:06;;;;;;;5.40;4.10;;;;;;;;;;6239713;23;20020;-56
2023/06/16 10:28:39;;;;;;;6.60;3.90;;;;;;;;;;6238289;23;20020;-54
2023/06/16 10:31:08;;;;;;;7.18;4.15;;;;;;;;;;6240475;23;20090;-49
2023/06/16 10:33:53;;;;;;;39.70;5.45;;;;;;;;;;6239944;23;20024;-45
2023/06/16 10:36:31;;;;;;;9.25;4.30;;;;;;;;;;6240365;23;20028;-45
2023/06/16 10:39:12;;;;;;;6.90;3.70;;;;;;;;;;6241480;23;20082;-47
2023/06/16 10:41:59;;;;;;;5.45;3.85;;;;;;;;;;6238908;23;20099;-43
2023/06/16 10:44:33;;;;;;;6.35;3.75;;;;;;;;;;6239392;23;20095;-47
2023/06/16 10:47:12;;;;;;;10.13;3.85;;;;;;;;;;6239818;23;20035;-46
2023/06/16 10:50:10;;;;;;;4.78;3.38;;;;;;;;;;6240221;23;20044;-47
2023/06/16 10:52:44;;;;;;;7.15;3.67;;;;;;;;;;6240030;23;20051;-53
2023/06/16 10:55:41;;;;;;;7.70;4.00;;;;;;;;;;6239682;23;20026;-51
2023/06/16 10:58:18;;;;;;;4.75;3.70;;;;;;;;;;6239187;23;20397;-52
2023/06/16 11:00:58;;;;;;;6.10;3.88;;;;;;;;;;6239031;23;20094;-49
2023/06/16 11:03:29;;;;;;;10.10;4.38;;;;;;;;;;6239093;23;20020;-48
2023/06/16 11:06:03;;;;;;;;;;;;;;;;;;6240006;23;20016;-51
2023/06/16 11:08:50;;;;;;;6.03;4.20;;;;;;;;;;6212470;23;20284;-49
2023/06/16 11:11:33;;;;;;;6.60;3.90;;;;;;;;;;6238877;23;20523;-48
2023/06/16 11:14:01;;;;;;;7.10;3.78;;;;;;;;;;6238807;23;20024;-50
2023/06/16 11:16:35;;;;;;;12.45;4.22;;;;;;;;;;6241347;23;20021;-51
2023/06/16 11:19:03;;;;;;;5.50;3.80;;;;;;;;;;6211139;23;20059;-52
2023/06/16 11:21:30;;;;;;;;;;;;;;;;;;6241215;23;20097;-49
2023/06/16 11:24:08;;;;;;;8.57;4.00;;;;;;;;;;6239245;23;20534;-51
2023/06/16 11:26:35;;;;;;;7.35;3.78;;;;;;;;;;6239047;23;20024;-64
2023/06/16 11:29:10;;;;;;;3.90;3.50;;;;;;;;;;6239607;23;20021;-53
2023/06/16 11:31:38;;;;;;;8.05;3.80;;;;;;;;;;6239199;23;20034;-53
2023/06/16 11:34:05;;;;;;;5.90;3.78;;;;;;;;;;6207357;23;20035;-52
2023/06/16 11:36:39;;;;;;;8.13;4.10;;;;;;;;;;6240021;23;20053;-52
2023/06/16 11:39:06;;;;;;;;;;;;;;;;;;6238867;23;20121;-55
2023/06/16 11:41:40;;;;;;;7.38;4.00;;;;;;;;;;6238923;23;19923;-53
2023/06/16 11:44:23;;;;;;;9.13;3.58;;;;;;;;;;6240244;23;20028;-49
2023/06/16 11:46:57;;;;;;;6.63;3.75;;;;;;;;;;6238416;23;20024;-51
2023/06/16 11:49:25;;;;;;;5.15;3.63;;;;;;;;;;6238404;23;20020;-53
2023/06/16 11:52:02;;;;;;;6.18;3.42;;;;;;;;;;6239193;23;20078;-50
2023/06/16 11:54:29;;;;;;;7.25;3.80;;;;;;;;;;6237738;23;20054;-49
2023/06/16 11:56:56;;;;;;;;;;;;;;;;;;6239130;23;20032;-54
2023/06/16 11:59:32;;;;;;;7.63;3.80;;;;;;;;;;6238791;23;19985;-47
2023/06/16 12:02:03;;;;;;;6.22;3.72;;;;;;;;;;6239295;23;20078;-49
2023/06/16 12:04:37;;;;;;;5.03;3.97;;;;;;;;;;6237957;23;20051;-43
2023/06/16 12:07:11;;;;;;;8.68;3.65;;;;;;;;;;6239206;23;20053;-45
2023/06/16 12:09:45;;;;;;;7.00;3.72;;;;;;;;;;6238595;23;20028;-44
2023/06/16 12:12:13;;;;;;;;;;;;;;;;;;6239257;23;20024;-44
2023/06/16 12:14:41;;;;;;;7.38;3.70;;;;;;;;;;6238870;23;19915;-60
2023/06/16 12:17:15;;;;;;;5.55;3.70;;;;;;;;;;6239451;23;20024;-60
2023/06/16 12:19:42;;;;;;;;;;;;;;;;;;6238943;23;20027;-60
2023/06/16 12:22:10;;;;;;;6.55;3.63;;;;;;;;;;6240453;23;19973;-60
2023/06/16 23:16:38;;;;;;;11.73;7.15;;;;;;;;;;5895610;22;8273512;-50
2023/06/16 23:19:13;;;;;;;11.57;7.23;;;;;;;;;;6179849;23;20029;-47
2023/06/16 23:21:42;;;;;;;8.05;6.90;;;;;;;;;;6178639;23;20024;-50
2023/06/16 23:24:10;;;;;;;9.52;7.60;;;;;;;;;;6177559;23;20068;-47
2023/06/16 23:26:45;;;;;;;10.27;7.32;;;;;;;;;;6180076;23;20043;-52
2023/06/16 23:29:15;;;;;;;7.65;6.68;;;;;;;;;;6177693;23;20028;-43
2023/06/16 23:31:49;;;;;;;11.68;7.50;;;;;;;;;;6179682;23;20028;-47
2023/06/16 23:34:16;;;;;;;15.60;6.57;;;;;;;;;;6178765;23;20076;-44
2023/06/16 23:36:45;;;;;;;10.18;6.95;;;;;;;;;;6178219;23;20029;-47
2023/06/16 23:39:18;;;;;;;8.02;6.57;;;;;;;;;;6178193;23;20395;-47
2023/06/16 23:41:46;;;;;;;;;;;;;;;;;;6153753;23;20029;-46
2023/06/16 23:44:20;;;;;;;8.05;6.72;;;;;;;;;;6177826;23;19920;-49
2023/06/16 23:46:47;;;;;;;8.23;7.35;;;;;;;;;;6178810;23;20021;-44
2023/06/16 23:49:21;;;;;;;11.60;7.15;;;;;;;;;;6177767;23;20032;-47
2023/06/16 23:51:48;;;;;;;12.80;6.72;;;;;;;;;;6177257;23;20033;-46
2023/06/16 23:54:16;;;;;;;10.25;6.45;;;;;;;;;;6178606;23;20028;-44
2023/06/16 23:56:50;;;;;;;11.82;7.95;;;;;;;;;;6177622;23;20471;-59
2023/06/16 23:59:20;;;;;;;12.57;7.03;;;;;;;;;;6175864;23;20432;-46
